West Hampton, New York
Current Conditions -  °F | °C
As of 2:53 AM on Wednesday 26 Nov 2014 (Local Time) from KFOK Reporting Station
Overcast Overcast  
Wind Chill: 40°   Ceiling: 10000
Heat Index: 43°   Visibility: 10mi
Dew Point: 37°   Wind: 5mph
Humidity: 80%   Direction: 310°NW
Pressure: 30.19"   Gusts: NA
Location:  40.8273°N, 72.678°W
Report Text: KFOK 260753Z AUTO 31004KT 10SM OVC100 06/03 A3019 RMK AO2 SLP223 T00610028 TSNO
Loading
Personal Weather Stations






























Interactive Weather Map New forecast layout! Learn more

10-Day Weather Forecast

Advertisements
Track Severe Weather on mobile